This is the latest recevied weather packets stored in our database for station/object KN6WGU. If no packets are shown the sender has not sent any weather packets the latest 10 day(s).
| Time | Temp. | Humidity | Pressure | Rain* | Wind** | Luminosity | Snow |
|---|---|---|---|---|---|---|---|
| 1787546670 | 18.33° C | 66% | 1007.4 hPa | 0 mm | - | 0 W/m² | - |
| 1787546366 | 18.33° C | 64% | 1007.3 hPa | 0 mm | - | 0 W/m² | - |
| 1787546062 | 18.89° C | 64% | 1007.4 hPa | 0 mm | - | 0 W/m² | - |
| 1787545757 | 18.89° C | 65% | 1007.3 hPa | 0 mm | - | 0 W/m² | - |
| 1787545453 | 18.89° C | 66% | 1007.4 hPa | 0 mm | - | 0 W/m² | - |
| 1787545150 | 18.89° C | 66% | 1007.5 hPa | 0 mm | - | 0 W/m² | - |
| 1787544847 | 18.89° C | 66% | 1007.3 hPa | 0 mm | - | 0 W/m² | - |
| 1787544542 | 18.89° C | 64% | 1007.1 hPa | 0 mm | - | 0 W/m² | - |
| 1787544238 | 18.89° C | 63% | 1007.3 hPa | 0 mm | - | 0 W/m² | - |
| 1787543933 | 19.44° C | 65% | 1007.3 hPa | 0 mm | - | 0 W/m² | - |
| 1787543629 | 19.44° C | 65% | 1007.3 hPa | 0 mm | - | 0 W/m² | - |
| 1787543325 | 19.44° C | 67% | 1007.3 hPa | 0 mm | - | 0 W/m² | - |
| 1787543020 | 19.44° C | 67% | 1007.4 hPa | 0 mm | - | 0 W/m² | - |
| 1787542714 | 19.44° C | 66% | 1007.1 hPa | 0 mm | - | 0 W/m² | - |
| 1787542410 | 19.44° C | 71% | 1007.4 hPa | 0 mm | - | 0 W/m² | - |
| 1787542106 | 19.44° C | 69% | 1007.1 hPa | 0 mm | - | 0 W/m² | - |
| 1787541802 | 19.44° C | 69% | 1007.1 hPa | 0 mm | - | 0 W/m² | - |
| 1787541498 | 19.44° C | 70% | 1007.3 hPa | 0 mm | - | 0 W/m² | - |
| 1787541195 | 19.44° C | 71% | 1007.4 hPa | 0 mm | - | 0 W/m² | - |
| 1787540890 | 19.44° C | 71% | 1007.3 hPa | 0 mm | - | 0 W/m² | - |
| 1787540587 | 19.44° C | 72% | 1007.3 hPa | 0 mm | - | 0 W/m² | - |
| 1787540284 | 18.89° C | 74% | 1007.2 hPa | 0 mm | - | 0 W/m² | - |
| 1787539980 | 18.89° C | 75% | 1007.2 hPa | 0 mm | - | 0 W/m² | - |
| 1787539670 | 18.89° C | 76% | 1007.3 hPa | 0 mm | - | 0 W/m² | - |
| 1787539369 | 18.89° C | 76% | 1007.4 hPa | 0 mm | - | 0 W/m² | - |
* Rain latest hour (hover to see other rain measurements)
** Current wind speed in m/s (hover to see current wind gust speed)